Data for 02/26/2017

Time Sea-Level Adjusted Pressure Absolute Pressure Temperature Relative Humidity Dew Point   
(mb) (inHg) (mb) (inHg) (C) (F) (%) (C) (F)
00:05 1010 29.83 839 24.78 -7.2 19 57 -14.3 6.3
00:10 1010 29.83 839 24.78 -7.3 18.8 57 -14.5 5.9
00:15 1010 29.83 839 24.78 -7.6 18.4 58 -14.5 6
00:20 1010 29.83 839 24.78 -7.6 18.3 58 -14.6 5.7
00:25 1010 29.83 839 24.78 -7.6 18.2 58 -14.6 5.8
00:30 1010 29.83 839 24.78 -7.6 18.3 57 -14.7 5.5
00:35 1010 29.83 839 24.78 -7.5 18.6 57 -14.7 5.6
00:40 1010 29.83 839 24.78 -7.2 19 55 -14.8 5.3
00:45 1010 29.83 839 24.78 -7 19.4 55 -14.6 5.8
00:50 1010 29.83 839 24.78 -7 19.4 56 -14.5 6
00:55 1010 29.83 839 24.78 -7.1 19.2 55 -14.6 5.7
01:00 1010 29.83 839 24.78 -7.1 19.3 54 -14.8 5.4
01:05 1010 29.83 839 24.78 -7 19.5 55 -14.6 5.7
01:10 1010 29.83 839 24.78 -6.9 19.6 56 -14.3 6.2
01:15 1010 29.83 839 24.78 -6.9 19.5 57 -14.1 6.6
01:20 1010 29.83 839 24.78 -7.1 19.3 58 -14 6.8
01:25 1010 29.83 839 24.78 -7.2 19 58 -14.1 6.6
01:30 1010 29.83 839 24.78 -7.3 18.9 59 -13.9 7
01:35 1010 29.83 839 24.78 -7.3 18.8 59 -14.1 6.6
01:40 1010 29.83 839 24.78 -7.2 19.1 59 -13.9 6.9
01:45 1010 29.83 839 24.78 -7.2 19.1 59 -13.9 7.1
01:50 1010 29.83 839 24.78 -7.1 19.2 57 -14.2 6.5
01:55 1010 29.83 839 24.78 -7 19.4 57 -14.1 6.6
02:00 1010 29.83 839 24.78 -6.9 19.6 57 -14 6.8
02:05 1010 29.83 839 24.78 -6.9 19.7 57 -14 6.9
02:10 1010 29.83 840 24.81 -6.8 19.7 56 -14.2 6.5
02:15 1010 29.83 840 24.81 -6.8 19.8 56 -14.1 6.7
02:20 1010 29.83 839 24.78 -6.7 19.9 55 -14.3 6.2
02:25 1010 29.83 839 24.78 -6.6 20.2 55 -14.2 6.4
02:30 1010 29.83 840 24.81 -6.5 20.3 55 -14.2 6.5
02:35 1010 29.83 840 24.81 -6.5 20.3 56 -13.8 7.1
02:40 1010 29.83 840 24.81 -6.5 20.3 55 -14.1 6.6
02:45 1010 29.83 840 24.81 -6.5 20.3 56 -13.9 7
02:50 1010 29.83 839 24.78 -6.5 20.3 56 -13.8 7.1
02:55 1010 29.83 839 24.78 -6.5 20.3 56 -13.9 6.9
03:00 1010 29.83 839 24.78 -6.5 20.3 57 -13.6 7.5
03:05 1010 29.83 839 24.78 -6.5 20.3 57 -13.6 7.5
03:10 1010 29.83 839 24.78 -6.5 20.3 58 -13.4 7.8
03:15 1010 29.83 839 24.78 -6.5 20.3 58 -13.4 7.9
03:20 1010 29.83 839 24.78 -6.6 20.2 59 -13.3 8
03:25 1010 29.83 839 24.78 -6.5 20.3 58 -13.4 7.9
03:30 1010 29.83 839 24.78 -6.4 20.4 59 -13.2 8.2
03:35 1010 29.83 839 24.78 -6.4 20.5 59 -13.2 8.2
03:40 1010 29.83 839 24.78 -6.4 20.5 61 -12.8 9
03:45 1010 29.83 839 24.78 -6.4 20.4 60 -12.9 8.7
03:50 1010 29.83 839 24.78 -6.4 20.5 60 -13 8.6
03:55 1010 29.83 839 24.78 -6.3 20.6 60 -13 8.7
04:00 1010 29.83 839 24.78 -6.4 20.5 60 -12.9 8.9
04:05 1010 29.83 839 24.78 -6.4 20.6 61 -12.7 9.1
04:10 1010 29.83 839 24.78 -6.3 20.7 61 -12.6 9.3
04:15 1010 29.83 839 24.78 -6.3 20.7 61 -12.6 9.4
04:20 1010 29.83 839 24.78 -6.2 20.8 61 -12.6 9.4
04:25 1010 29.83 839 24.78 -6.2 20.8 62 -12.4 9.6
04:30 1010 29.83 839 24.78 -6.2 20.8 62 -12.4 9.6
04:35 1010 29.83 839 24.78 -6.2 20.9 62 -12.4 9.7
04:40 1010 29.83 839 24.78 -6.2 20.9 61 -12.5 9.4
04:45 1010 29.83 839 24.78 -6.1 21.1 61 -12.5 9.5
04:50 1010 29.83 839 24.78 -6 21.2 62 -12.2 10.1
04:55 1010 29.83 839 24.78 -6 21.3 61 -12.3 9.8
05:00 1010 29.83 839 24.78 -5.8 21.5 60 -12.3 9.8
05:05 1010 29.83 839 24.78 -5.7 21.7 59 -12.5 9.5
05:10 1010 29.83 839 24.78 -5.6 21.9 58 -12.6 9.2
05:15 1010 29.83 839 24.78 -5.6 22 57 -12.8 9
05:20 1010 29.83 839 24.78 -5.7 21.7 57 -12.8 8.9
05:25 1009 29.8 839 24.78 -5.7 21.7 57 -12.9 8.7
05:30 1009 29.8 839 24.78 -5.7 21.7 56 -13.1 8.5
05:35 1009 29.8 839 24.78 -5.7 21.7 55 -13.4 7.9
05:40 1009 29.8 839 24.78 -5.7 21.7 55 -13.4 7.9
05:45 1009 29.8 839 24.78 -5.7 21.8 53 -13.7 7.3
05:50 1009 29.8 838 24.75 -5.6 21.8 54 -13.6 7.4
05:55 1009 29.8 838 24.75 -5.6 21.9 55 -13.3 8.1
06:00 1009 29.8 838 24.75 -5.7 21.8 59 -12.4 9.7
06:05 1009 29.8 838 24.75 -6.1 21 60 -12.6 9.3
06:10 1009 29.8 838 24.75 -6.2 20.8 62 -12.3 9.9
06:15 1009 29.8 838 24.75 -6.2 20.8 62 -12.4 9.7
06:20 1009 29.8 838 24.75 -6.3 20.7 64 -12.1 10.2
06:25 1009 29.8 838 24.75 -6.4 20.4 66 -11.8 10.8
06:30 1009 29.8 838 24.75 -6.5 20.3 65 -12 10.4
06:35 1009 29.8 838 24.75 -6.6 20.1 65 -12.1 10.3
06:40 1009 29.8 838 24.75 -6.6 20.1 65 -12.1 10.2
06:45 1009 29.8 838 24.75 -6.7 20 62 -12.9 8.8
06:50 1009 29.8 838 24.75 -6.4 20.5 64 -12.2 10.1
06:55 1009 29.8 838 24.75 -6.5 20.4 62 -12.5 9.4
07:00 1009 29.8 838 24.75 -6.5 20.4 63 -12.5 9.5
07:05 1009 29.8 838 24.75 -6.4 20.4 64 -12.1 10.2
07:10 1009 29.8 838 24.75 -6.5 20.2 63 -12.4 9.7
07:15 1009 29.8 838 24.75 -6.7 19.9 66 -12.2 10.1
07:20 1009 29.8 838 24.75 -6.8 19.7 65 -12.4 9.7
07:25 1009 29.8 838 24.75 -6.6 20.2 57 -13.7 7.3
07:30 1009 29.8 838 24.75 -6.1 21 55 -13.7 7.3
07:35 1009 29.8 838 24.75 -5.8 21.6 51 -14.4 6.2
07:40 1009 29.8 838 24.75 -5.4 22.3 50 -14.3 6.3
07:45 1009 29.8 838 24.75 -5.2 22.6 49 -14.3 6.3
07:50 1009 29.8 838 24.75 -5.2 22.6 49 -14.4 6
07:55 1009 29.8 838 24.75 -5.2 22.6 47 -14.9 5.2
08:00 1009 29.8 838 24.75 -5.2 22.7 48 -14.5 5.9
08:05 1009 29.8 838 24.75 -5.1 22.9 50 -14 6.8
08:10 1009 29.8 838 24.75 -4.9 23.1 47 -14.5 5.9
08:15 1009 29.8 838 24.75 -4.8 23.3 47 -14.5 5.9
08:20 1009 29.8 838 24.75 -4.9 23.1 57 -12.3 9.9
08:25 1009 29.8 838 24.75 -5.3 22.5 59 -12.1 10.2
08:30 1009 29.8 838 24.75 -5.3 22.5 59 -12.2 10.1
08:35 1009 29.8 838 24.75 -5.3 22.5 57 -12.5 9.6
08:40 1009 29.8 838 24.75 -5.2 22.6 57 -12.5 9.5
08:45 1009 29.8 838 24.75 -5.1 22.8 57 -12.4 9.7
08:50 1009 29.8 838 24.75 -4.8 23.3 55 -12.6 9.3
08:55 1009 29.8 838 24.75 -4.8 23.3 55 -12.5 9.5
09:00 1009 29.8 838 24.75 -4.8 23.4 57 -12 10.4
09:05 1009 29.8 838 24.75 -4.7 23.5 57 -12.1 10.2
09:10 1009 29.8 838 24.75 -4.5 24 57 -11.8 10.7
09:15 1009 29.8 838 24.75 -3.8 25.1 50 -12.7 9.1
09:20 1009 29.8 838 24.75 -3.7 25.3 52 -12.3 9.9
09:25 1009 29.8 838 24.75 -3.3 26.1 51 -12.1 10.2
09:30 1009 29.8 838 24.75 -3.4 26 48 -12.8 9
09:35 1009 29.8 838 24.75 -3.4 25.8 47 -13.3 8.1
09:40 1009 29.8 838 24.75 -3.6 25.5 48 -13.2 8.3
09:45 1009 29.8 838 24.75 -3.3 26 47 -13.2 8.3
09:50 1009 29.8 838 24.75 -3.1 26.4 48 -12.7 9.1
09:55 1009 29.8 838 24.75 -3 26.6 45 -13.3 8
10:00 1009 29.8 838 24.75 -2.8 26.9 41 -14.3 6.3
10:05 1009 29.8 838 24.75 -2.2 28 44 -13.1 8.5
10:10 1009 29.8 838 24.75 -2 28.4 43 -12.9 8.7
10:15 1009 29.8 838 24.75 -2 28.4 41 -13.6 7.5
10:20 1009 29.8 838 24.75 -2.3 27.8 42 -13.6 7.4
10:25 1009 29.8 838 24.75 -2.8 26.9 41 -14.5 5.9
10:30 1009 29.8 838 24.75 -2.8 27 41 -14.1 6.6
10:35 1009 29.8 838 24.75 -2.4 27.6 42 -13.8 7.2
10:40 1009 29.8 838 24.75 -2.1 28.2 40 -13.9 7
10:45 1009 29.8 838 24.75 -1.8 28.7 39 -13.9 7
10:50 1009 29.8 838 24.75 -1.7 28.9 40 -13.6 7.5
10:55 1009 29.8 838 24.75 -2.2 28.1 41 -13.8 7.1
11:00 1009 29.8 838 24.75 -1.9 28.5 40 -13.8 7.2
11:05 1009 29.8 838 24.75 -1.5 29.3 41 -13.2 8.3
11:10 1008 29.77 838 24.75 -0.8 30.6 37 -13.8 7.1
11:15 1008 29.77 838 24.75 -0.7 30.8 39 -13.1 8.5
11:20 1008 29.77 838 24.75 -0.5 31.1 35 -14.3 6.2
11:25 1008 29.77 838 24.75 -0.7 30.7 36 -14 6.9
11:30 1008 29.77 838 24.75 -0.2 31.6 39 -12.6 9.3
11:35 1008 29.77 837 24.72 0 32 41 -11.8 10.8
11:40 1008 29.77 837 24.72 -0.6 31 42 -12 10.4
11:45 1008 29.77 837 24.72 -0.7 30.8 43 -11.7 10.9
11:50 1008 29.77 837 24.72 -0.3 31.4 41 -12.2 10.1
11:55 1008 29.77 837 24.72 -0.4 31.2 35 -14.1 6.7
12:00 1008 29.77 837 24.72 -1 30.2 38 -13.5 7.6
12:05 1008 29.77 837 24.72 -1.1 30.1 38 -13.8 7.2
12:10 1008 29.77 837 24.72 -0.8 30.6 41 -12.4 9.7
12:15 1008 29.77 837 24.72 -1.4 29.5 46 -11.7 10.9
12:20 1008 29.77 837 24.72 -1.6 29.1 45 -12.2 10.1
12:25 1008 29.77 837 24.72 -1.6 29.1 46 -11.9 10.5
12:30 1008 29.77 837 24.72 -1 30.1 42 -12.4 9.7
12:35 1008 29.77 837 24.72 -0.7 30.7 43 -12 10.5
12:40 1008 29.77 837 24.72 -1 30.2 41 -12.5 9.5
12:45 1008 29.77 837 24.72 -1.4 29.5 45 -11.8 10.8
12:50 1008 29.77 837 24.72 -1.5 29.3 46 -11.7 11
12:55 1008 29.77 837 24.72 -1.8 28.8 46 -12 10.4
13:00 1008 29.77 837 24.72 -1.1 30 44 -12 10.4
13:05 1008 29.77 837 24.72 -1 30.1 45 -11.5 11.3
13:10 1008 29.77 837 24.72 -0.7 30.7 45 -11.1 12
13:15 1007 29.74 837 24.72 -0.5 31.2 43 -11.6 11.1
13:20 1007 29.74 837 24.72 -0.6 30.9 44 -11.5 11.3
13:25 1007 29.74 837 24.72 -0.8 30.6 43 -11.8 10.8
13:30 1007 29.74 837 24.72 -1.4 29.5 48 -11 12.2
13:35 1007 29.74 836 24.69 -2.1 28.2 52 -10.7 12.8
13:40 1007 29.74 836 24.69 -2.7 27.2 54 -10.9 12.4
13:45 1007 29.74 836 24.69 -2.5 27.5 54 -10.6 13
13:50 1007 29.74 836 24.69 -2.7 27.1 54 -10.8 12.6
13:55 1007 29.74 836 24.69 -3 26.7 56 -10.6 12.9
14:00 1007 29.74 836 24.69 -2.9 26.8 55 -10.8 12.6
14:05 1007 29.74 836 24.69 -3.2 26.3 55 -10.9 12.4
14:10 1007 29.74 836 24.69 -3.1 26.5 56 -10.7 12.7
14:15 1007 29.74 836 24.69 -2.7 27.2 52 -11.1 12
14:20 1007 29.74 836 24.69 -2.5 27.6 53 -10.9 12.4
14:25 1007 29.74 836 24.69 -2.2 28 49 -11.6 11.1
14:30 1007 29.74 836 24.69 -2 28.4 48 -11.5 11.2
14:35 1007 29.74 836 24.69 -2.1 28.2 49 -11.3 11.6
14:40 1007 29.74 836 24.69 -2 28.4 49 -11.5 11.4
14:45 1007 29.74 836 24.69 -1.6 29.2 47 -11.4 11.4
14:50 1007 29.74 836 24.69 -1.8 28.8 49 -11.1 12.1
14:55 1007 29.74 836 24.69 -1.6 29.1 49 -11.1 12.1
15:00 1006 29.71 836 24.69 -2.2 28.1 51 -10.9 12.4
15:05 1006 29.71 836 24.69 -1.9 28.6 50 -11 12.1
15:10 1006 29.71 836 24.69 -1.7 28.9 48 -11.2 11.8
15:15 1006 29.71 835 24.66 -1.6 29 48 -11.2 11.9
15:20 1006 29.71 835 24.66 -1.3 29.6 47 -11.3 11.6
15:25 1006 29.71 835 24.66 -1.3 29.8 47 -11.1 12
15:30 1006 29.71 835 24.66 -1.3 29.6 49 -10.8 12.5
15:35 1006 29.71 835 24.66 -1.7 29 49 -10.9 12.3
15:40 1006 29.71 835 24.66 -1.8 28.7 49 -11.2 11.8
15:45 1006 29.71 835 24.66 -1.8 28.8 49 -11.2 11.8
15:50 1006 29.71 835 24.66 -1.7 28.9 51 -10.7 12.8
15:55 1006 29.71 835 24.66 -2 28.5 52 -10.6 12.9
16:00 1006 29.71 835 24.66 -2.3 27.9 52 -10.8 12.6
16:05 1006 29.71 835 24.66 -2.4 27.6 53 -10.7 12.8
16:10 1006 29.71 835 24.66 -2.5 27.6 54 -10.5 13.1
16:15 1006 29.71 835 24.66 -2.4 27.7 54 -10.4 13.3
16:20 1006 29.71 835 24.66 -2.5 27.5 55 -10.4 13.3
16:25 1006 29.71 835 24.66 -2.5 27.4 55 -10.3 13.5
16:30 1006 29.71 835 24.66 -2.6 27.3 55 -10.4 13.2
16:35 1006 29.71 835 24.66 -2.7 27.1 57 -10.2 13.7
16:40 1006 29.71 835 24.66 -2.8 26.9 57 -10.1 13.7
16:45 1006 29.71 835 24.66 -2.8 26.9 57 -10.2 13.7
16:50 1006 29.71 835 24.66 -2.9 26.9 56 -10.4 13.2
16:55 1006 29.71 835 24.66 -2.8 27 56 -10.4 13.3
17:00 1006 29.71 835 24.66 -2.7 27.1 55 -10.6 12.9
17:05 1006 29.71 835 24.66 -2.8 27 56 -10.4 13.3
17:10 1006 29.71 835 24.66 -2.6 27.3 57 -9.9 14.1
17:15 1006 29.71 835 24.66 -2.5 27.4 53 -10.8 12.6
17:20 1006 29.71 835 24.66 -2.7 27.2 52 -11.2 11.9
17:25 1006 29.71 835 24.66 -2.4 27.6 52 -10.9 12.4
17:30 1006 29.71 835 24.66 -2.4 27.7 52 -11 12.2
17:35 1006 29.71 835 24.66 -2.4 27.7 54 -10.4 13.4
17:40 1006 29.71 835 24.66 -2.4 27.7 54 -10.4 13.4
17:45 1006 29.71 835 24.66 -2.7 27.2 55 -10.5 13
17:50 1006 29.71 835 24.66 -2.5 27.4 54 -10.5 13.1
17:55 1006 29.71 835 24.66 -2.4 27.6 57 -9.9 14.2
18:00 1006 29.71 835 24.66 -2.4 27.7 52 -10.9 12.5
18:05 1006 29.71 835 24.66 -2.3 27.8 55 -10.2 13.7
18:10 1006 29.71 835 24.66 -2.7 27.1 60 -9.4 15.1
18:15 1006 29.71 835 24.66 -3 26.7 60 -9.7 14.5
18:20 1006 29.71 835 24.66 -3.1 26.5 65 -8.8 16.1
18:25 1006 29.71 835 24.66 -3.7 25.4 68 -8.7 16.4
18:30 1005 29.68 835 24.66 -3.9 24.9 69 -8.7 16.3
18:35 1005 29.68 835 24.66 -4 24.8 70 -8.6 16.5
18:40 1005 29.68 835 24.66 -4 24.7 72 -8.4 16.9
18:45 1005 29.68 835 24.66 -4.2 24.5 74 -8.2 17.3
18:50 1005 29.68 835 24.66 -4.3 24.3 74 -8.2 17.2
18:55 1005 29.68 835 24.66 -4.3 24.2 74 -8.2 17.2
19:00 1005 29.68 835 24.66 -4.3 24.2 74 -8.3 17.1
19:05 1005 29.68 835 24.66 -4.3 24.3 74 -8.3 17
19:10 1005 29.68 835 24.66 -4.2 24.5 73 -8.3 17.1
19:15 1005 29.68 835 24.66 -3.9 25 68 -8.9 16
19:20 1005 29.68 834 24.63 -3.9 24.9 68 -9.1 15.6
19:25 1005 29.68 834 24.63 -4 24.9 69 -8.7 16.3
19:30 1005 29.68 834 24.63 -4 24.8 68 -9.1 15.7
19:35 1005 29.68 834 24.63 -3.7 25.3 65 -9.3 15.3
19:40 1005 29.68 834 24.63 -3.6 25.6 63 -9.6 14.7
19:45 1005 29.68 834 24.63 -3.6 25.4 65 -9.3 15.3
19:50 1005 29.68 834 24.63 -3.6 25.5 64 -9.4 15.1
19:55 1005 29.68 834 24.63 -3.6 25.5 62 -9.9 14.1
20:00 1005 29.68 834 24.63 -3.6 25.5 60 -10.3 13.4
20:05 1005 29.68 834 24.63 -3.6 25.5 60 -10.2 13.6
20:10 1005 29.68 834 24.63 -3.7 25.3 62 -9.9 14.3
20:15 1005 29.68 834 24.63 -3.6 25.5 62 -9.9 14.2
20:20 1005 29.68 834 24.63 -3.4 25.8 58 -10.5 13.2
20:25 1005 29.68 834 24.63 -3.6 25.5 61 -10.1 13.8
20:30 1005 29.68 834 24.63 -3.5 25.8 58 -10.5 13.1
20:35 1005 29.68 834 24.63 -3.4 26 56 -10.9 12.4
20:40 1005 29.68 834 24.63 -3.4 25.8 58 -10.5 13.2
20:45 1005 29.68 834 24.63 -3.5 25.8 59 -10.3 13.5
20:50 1005 29.68 834 24.63 -3.5 25.8 59 -10.3 13.5
20:55 1005 29.68 834 24.63 -3.5 25.7 59 -10.3 13.4
21:00 1005 29.68 834 24.63 -3.5 25.6 60 -10.2 13.6
21:05 1005 29.68 834 24.63 -3.6 25.5 58 -10.8 12.6
21:10 1005 29.68 834 24.63 -3.8 25.2 57 -11.1 12.1
21:15 1005 29.68 834 24.63 -3.8 25.1 58 -11 12.1
21:20 1005 29.68 834 24.63 -3.8 25.2 58 -11 12.2
21:25 1005 29.68 834 24.63 -3.7 25.4 54 -11.6 11.1
21:30 1005 29.68 834 24.63 -3.6 25.6 55 -11.5 11.4
21:35 1005 29.68 834 24.63 -3.6 25.5 57 -11 12.2
21:40 1005 29.68 834 24.63 -3.7 25.3 58 -10.8 12.5
21:45 1005 29.68 834 24.63 -3.8 25.2 58 -10.8 12.6
21:50 1005 29.68 834 24.63 -3.8 25.1 58 -10.9 12.5
21:55 1005 29.68 834 24.63 -3.8 25.1 57 -11.2 11.8
22:00 1005 29.68 834 24.63 -3.8 25.1 55 -11.7 10.9
22:05 1005 29.68 834 24.63 -3.8 25.2 56 -11.4 11.5
22:10 1005 29.68 834 24.63 -3.8 25.2 51 -12.5 9.4
22:15 1005 29.68 834 24.63 -3.6 25.5 52 -12.1 10.3
22:20 1005 29.68 834 24.63 -3.7 25.4 55 -11.6 11.2
22:25 1005 29.68 834 24.63 -3.7 25.4 57 -11.1 12
22:30 1005 29.68 834 24.63 -3.8 25.1 58 -10.8 12.5
22:35 1005 29.68 834 24.63 -3.9 24.9 59 -10.8 12.5
22:40 1004 29.65 834 24.63 -3.9 24.9 58 -11.1 12.1
22:45 1004 29.65 834 24.63 -3.9 25 58 -11 12.2
22:50 1004 29.65 834 24.63 -3.9 24.9 58 -11.1 12.1
22:55 1004 29.65 834 24.63 -3.9 24.9 57 -11.3 11.7
23:00 1004 29.65 834 24.63 -3.9 24.9 56 -11.5 11.4
23:05 1004 29.65 834 24.63 -3.9 24.9 55 -11.7 11
23:10 1004 29.65 834 24.63 -4.2 24.5 56 -11.7 11
23:15 1004 29.65 834 24.63 -4.3 24.2 56 -11.9 10.6
23:20 1004 29.65 834 24.63 -4.4 24.1 57 -11.8 10.8
23:25 1004 29.65 833 24.6 -4.4 24.1 56 -12 10.4
23:30 1004 29.65 833 24.6 -4.3 24.2 55 -12 10.4
23:35 1004 29.65 833 24.6 -4.3 24.2 61 -10.9 12.5
23:40 1004 29.65 833 24.6 -4.5 23.9 60 -11 12.1
23:45 1004 29.65 833 24.6 -4.7 23.6 61 -11.2 11.9
23:50 1004 29.65 833 24.6 -4.8 23.3 63 -10.9 12.4
23:55 1004 29.65 833 24.6 -4.9 23.1 64 -10.8 12.5
24:00 1004 29.65 833 24.6 -5 23.1 62 -11.1 12